sensor_id;sensor_type;location;lat;lon;timestamp;temperature;humidity
62589;DHT22;58504;48.770;9.148;2023-03-21T00:02:07;25.30;40.80
62589;DHT22;58504;48.770;9.148;2023-03-21T00:04:34;25.40;40.70
62589;DHT22;58504;48.770;9.148;2023-03-21T00:07:01;25.40;40.60
62589;DHT22;58504;48.770;9.148;2023-03-21T00:09:27;25.30;40.70
62589;DHT22;58504;48.770;9.148;2023-03-21T00:11:54;25.20;40.70
62589;DHT22;58504;48.770;9.148;2023-03-21T00:14:21;25.10;41.00
62589;DHT22;58504;48.770;9.148;2023-03-21T00:16:50;25.00;41.20
62589;DHT22;58504;48.770;9.148;2023-03-21T00:19:20;24.70;41.50
62589;DHT22;58504;48.770;9.148;2023-03-21T00:21:49;24.50;41.80
62589;DHT22;58504;48.770;9.148;2023-03-21T00:24:16;24.30;42.10
62589;DHT22;58504;48.770;9.148;2023-03-21T00:26:43;24.20;42.60
62589;DHT22;58504;48.770;9.148;2023-03-21T00:29:10;24.00;42.90
62589;DHT22;58504;48.770;9.148;2023-03-21T00:31:37;23.90;43.10
62589;DHT22;58504;48.770;9.148;2023-03-21T00:34:04;23.70;43.50
62589;DHT22;58504;48.770;9.148;2023-03-21T00:36:32;23.50;43.70
62589;DHT22;58504;48.770;9.148;2023-03-21T00:38:58;23.40;44.10
62589;DHT22;58504;48.770;9.148;2023-03-21T00:41:26;23.20;44.40
62589;DHT22;58504;48.770;9.148;2023-03-21T00:43:53;23.00;44.70
62589;DHT22;58504;48.770;9.148;2023-03-21T00:46:20;22.90;45.00
62589;DHT22;58504;48.770;9.148;2023-03-21T00:48:47;22.70;45.20
62589;DHT22;58504;48.770;9.148;2023-03-21T00:51:18;22.50;45.50
62589;DHT22;58504;48.770;9.148;2023-03-21T00:53:52;22.50;45.70
62589;DHT22;58504;48.770;9.148;2023-03-21T00:56:20;22.30;45.90
62589;DHT22;58504;48.770;9.148;2023-03-21T00:58:47;22.20;46.20
62589;DHT22;58504;48.770;9.148;2023-03-21T01:01:14;22.10;46.50
62589;DHT22;58504;48.770;9.148;2023-03-21T01:03:40;21.90;46.60
62589;DHT22;58504;48.770;9.148;2023-03-21T01:06:16;21.80;46.80
62589;DHT22;58504;48.770;9.148;2023-03-21T01:08:46;21.70;47.10
62589;DHT22;58504;48.770;9.148;2023-03-21T01:11:16;21.60;47.80
62589;DHT22;58504;48.770;9.148;2023-03-21T01:13:43;21.50;47.50
62589;DHT22;58504;48.770;9.148;2023-03-21T01:16:11;21.40;47.60
62589;DHT22;58504;48.770;9.148;2023-03-21T01:18:39;21.30;47.80
62589;DHT22;58504;48.770;9.148;2023-03-21T01:21:08;21.30;48.00
62589;DHT22;58504;48.770;9.148;2023-03-21T01:23:36;21.20;48.20
62589;DHT22;58504;48.770;9.148;2023-03-21T01:26:03;21.10;48.30
62589;DHT22;58504;48.770;9.148;2023-03-21T01:28:31;21.10;48.50
62589;DHT22;58504;48.770;9.148;2023-03-21T01:31:00;20.90;48.50
62589;DHT22;58504;48.770;9.148;2023-03-21T01:33:27;20.90;48.70
62589;DHT22;58504;48.770;9.148;2023-03-21T01:35:54;20.80;48.80
62589;DHT22;58504;48.770;9.148;2023-03-21T01:38:21;20.80;48.90
62589;DHT22;58504;48.770;9.148;2023-03-21T01:40:48;20.70;49.00
62589;DHT22;58504;48.770;9.148;2023-03-21T01:43:21;20.70;49.20
62589;DHT22;58504;48.770;9.148;2023-03-21T01:46:19;20.60;49.30
62589;DHT22;58504;48.770;9.148;2023-03-21T01:48:50;20.50;49.40
62589;DHT22;58504;48.770;9.148;2023-03-21T01:51:18;20.50;49.50
62589;DHT22;58504;48.770;9.148;2023-03-21T01:53:46;20.40;49.50
62589;DHT22;58504;48.770;9.148;2023-03-21T01:56:18;20.40;49.70
62589;DHT22;58504;48.770;9.148;2023-03-21T01:58:48;20.40;49.80
62589;DHT22;58504;48.770;9.148;2023-03-21T02:01:17;20.30;49.80
62589;DHT22;58504;48.770;9.148;2023-03-21T02:03:48;20.30;50.00
62589;DHT22;58504;48.770;9.148;2023-03-21T02:06:29;20.20;50.10
62589;DHT22;58504;48.770;9.148;2023-03-21T02:08:59;20.20;50.20
62589;DHT22;58504;48.770;9.148;2023-03-21T02:11:29;20.20;50.30
62589;DHT22;58504;48.770;9.148;2023-03-21T02:13:57;20.10;50.20
62589;DHT22;58504;48.770;9.148;2023-03-21T02:16:33;20.10;50.30
62589;DHT22;58504;48.770;9.148;2023-03-21T02:19:23;20.00;50.40
62589;DHT22;58504;48.770;9.148;2023-03-21T02:22:12;20.00;50.40
62589;DHT22;58504;48.770;9.148;2023-03-21T02:25:13;20.00;50.60
62589;DHT22;58504;48.770;9.148;2023-03-21T02:27:45;19.90;50.60
62589;DHT22;58504;48.770;9.148;2023-03-21T02:30:33;19.90;50.70
62589;DHT22;58504;48.770;9.148;2023-03-21T02:33:31;19.90;50.70
62589;DHT22;58504;48.770;9.148;2023-03-21T02:36:16;19.90;50.80
62589;DHT22;58504;48.770;9.148;2023-03-21T02:38:48;19.80;51.40
62589;DHT22;58504;48.770;9.148;2023-03-21T02:41:18;19.80;51.50
62589;DHT22;58504;48.770;9.148;2023-03-21T02:43:54;19.80;50.90
62589;DHT22;58504;48.770;9.148;2023-03-21T02:46:27;19.80;51.00
62589;DHT22;58504;48.770;9.148;2023-03-21T02:49:02;19.70;51.00
62589;DHT22;58504;48.770;9.148;2023-03-21T02:51:32;19.70;51.10
62589;DHT22;58504;48.770;9.148;2023-03-21T02:54:04;19.70;51.10
62589;DHT22;58504;48.770;9.148;2023-03-21T02:56:32;19.70;51.20
62589;DHT22;58504;48.770;9.148;2023-03-21T02:59:00;19.70;51.20
62589;DHT22;58504;48.770;9.148;2023-03-21T03:01:28;19.60;51.20
62589;DHT22;58504;48.770;9.148;2023-03-21T03:03:55;19.60;51.20
62589;DHT22;58504;48.770;9.148;2023-03-21T03:06:24;19.60;51.20
62589;DHT22;58504;48.770;9.148;2023-03-21T03:09:05;19.60;51.30
62589;DHT22;58504;48.770;9.148;2023-03-21T03:11:34;19.60;51.30
62589;DHT22;58504;48.770;9.148;2023-03-21T03:14:33;19.50;51.30
62589;DHT22;58504;48.770;9.148;2023-03-21T03:17:19;19.50;51.30
62589;DHT22;58504;48.770;9.148;2023-03-21T03:19:58;19.50;51.30
62589;DHT22;58504;48.770;9.148;2023-03-21T03:22:30;19.50;51.40
62589;DHT22;58504;48.770;9.148;2023-03-21T03:25:06;19.50;51.40
62589;DHT22;58504;48.770;9.148;2023-03-21T03:27:38;19.50;51.40
62589;DHT22;58504;48.770;9.148;2023-03-21T03:30:08;19.50;51.50
62589;DHT22;58504;48.770;9.148;2023-03-21T03:32:39;19.50;51.50
62589;DHT22;58504;48.770;9.148;2023-03-21T03:35:10;19.40;51.50
62589;DHT22;58504;48.770;9.148;2023-03-21T03:37:39;19.40;51.50
62589;DHT22;58504;48.770;9.148;2023-03-21T03:40:11;19.40;51.50
62589;DHT22;58504;48.770;9.148;2023-03-21T03:42:42;19.40;51.50
62589;DHT22;58504;48.770;9.148;2023-03-21T03:45:12;19.40;51.60
62589;DHT22;58504;48.770;9.148;2023-03-21T03:47:42;19.40;51.60
62589;DHT22;58504;48.770;9.148;2023-03-21T03:50:14;19.40;51.60
62589;DHT22;58504;48.770;9.148;2023-03-21T03:52:47;19.40;51.60
62589;DHT22;58504;48.770;9.148;2023-03-21T03:55:18;19.30;51.60
62589;DHT22;58504;48.770;9.148;2023-03-21T03:57:47;19.30;51.70
62589;DHT22;58504;48.770;9.148;2023-03-21T04:00:15;19.30;51.60
62589;DHT22;58504;48.770;9.148;2023-03-21T04:02:43;19.30;51.70
62589;DHT22;58504;48.770;9.148;2023-03-21T04:05:10;19.30;51.70
62589;DHT22;58504;48.770;9.148;2023-03-21T04:07:38;19.30;51.70
62589;DHT22;58504;48.770;9.148;2023-03-21T04:10:06;19.30;51.70
62589;DHT22;58504;48.770;9.148;2023-03-21T04:12:34;19.30;51.70
62589;DHT22;58504;48.770;9.148;2023-03-21T04:15:01;19.30;51.70
62589;DHT22;58504;48.770;9.148;2023-03-21T04:17:28;19.30;51.70
62589;DHT22;58504;48.770;9.148;2023-03-21T04:19:54;19.30;51.70
62589;DHT22;58504;48.770;9.148;2023-03-21T04:22:21;19.30;51.70
62589;DHT22;58504;48.770;9.148;2023-03-21T04:24:48;19.20;51.70
62589;DHT22;58504;48.770;9.148;2023-03-21T04:27:16;19.20;51.70
62589;DHT22;58504;48.770;9.148;2023-03-21T04:29:44;19.20;51.70
62589;DHT22;58504;48.770;9.148;2023-03-21T04:32:10;19.20;51.80
62589;DHT22;58504;48.770;9.148;2023-03-21T04:34:42;19.20;51.70
62589;DHT22;58504;48.770;9.148;2023-03-21T04:37:14;19.20;51.80
62589;DHT22;58504;48.770;9.148;2023-03-21T04:39:41;19.20;51.70
62589;DHT22;58504;48.770;9.148;2023-03-21T04:42:08;19.20;51.80
62589;DHT22;58504;48.770;9.148;2023-03-21T04:44:35;19.20;51.80
62589;DHT22;58504;48.770;9.148;2023-03-21T04:47:03;19.20;51.80
62589;DHT22;58504;48.770;9.148;2023-03-21T04:49:30;19.20;51.80
62589;DHT22;58504;48.770;9.148;2023-03-21T04:51:56;19.20;51.80
62589;DHT22;58504;48.770;9.148;2023-03-21T04:54:23;19.20;51.80
62589;DHT22;58504;48.770;9.148;2023-03-21T04:56:50;19.20;51.80
62589;DHT22;58504;48.770;9.148;2023-03-21T04:59:18;19.20;51.90
62589;DHT22;58504;48.770;9.148;2023-03-21T05:01:45;19.10;51.80
62589;DHT22;58504;48.770;9.148;2023-03-21T05:04:15;19.10;51.80
62589;DHT22;58504;48.770;9.148;2023-03-21T05:06:43;19.10;51.70
62589;DHT22;58504;48.770;9.148;2023-03-21T05:09:10;19.10;51.80
62589;DHT22;58504;48.770;9.148;2023-03-21T05:11:39;19.10;51.80
62589;DHT22;58504;48.770;9.148;2023-03-21T05:14:07;19.10;51.80
62589;DHT22;58504;48.770;9.148;2023-03-21T05:16:34;19.10;51.90
62589;DHT22;58504;48.770;9.148;2023-03-21T05:19:03;19.10;51.80
62589;DHT22;58504;48.770;9.148;2023-03-21T05:21:32;19.10;51.80
62589;DHT22;58504;48.770;9.148;2023-03-21T05:24:06;19.10;51.80
62589;DHT22;58504;48.770;9.148;2023-03-21T05:26:36;19.10;51.90
62589;DHT22;58504;48.770;9.148;2023-03-21T05:29:03;19.10;51.90
62589;DHT22;58504;48.770;9.148;2023-03-21T05:31:30;19.10;51.90
62589;DHT22;58504;48.770;9.148;2023-03-21T05:33:57;19.10;51.90
62589;DHT22;58504;48.770;9.148;2023-03-21T05:36:25;19.20;52.00
62589;DHT22;58504;48.770;9.148;2023-03-21T05:38:53;19.10;51.90
62589;DHT22;58504;48.770;9.148;2023-03-21T05:41:20;19.10;51.90
62589;DHT22;58504;48.770;9.148;2023-03-21T05:43:47;19.10;51.90
62589;DHT22;58504;48.770;9.148;2023-03-21T05:46:13;19.10;51.90
62589;DHT22;58504;48.770;9.148;2023-03-21T05:48:40;19.10;51.80
62589;DHT22;58504;48.770;9.148;2023-03-21T05:51:07;19.20;52.00
62589;DHT22;58504;48.770;9.148;2023-03-21T05:53:34;19.10;51.80
62589;DHT22;58504;48.770;9.148;2023-03-21T05:56:02;19.10;51.80
62589;DHT22;58504;48.770;9.148;2023-03-21T05:58:29;19.10;51.80
62589;DHT22;58504;48.770;9.148;2023-03-21T06:00:56;19.10;51.80
62589;DHT22;58504;48.770;9.148;2023-03-21T06:03:23;19.10;51.80
62589;DHT22;58504;48.770;9.148;2023-03-21T06:05:50;19.10;51.90
62589;DHT22;58504;48.770;9.148;2023-03-21T06:08:17;19.10;51.90
62589;DHT22;58504;48.770;9.148;2023-03-21T06:10:43;19.10;51.90
62589;DHT22;58504;48.770;9.148;2023-03-21T06:13:11;19.10;51.80
62589;DHT22;58504;48.770;9.148;2023-03-21T06:15:38;19.10;51.80
62589;DHT22;58504;48.770;9.148;2023-03-21T06:18:05;19.20;51.80
62589;DHT22;58504;48.770;9.148;2023-03-21T06:20:32;19.20;51.80
62589;DHT22;58504;48.770;9.148;2023-03-21T06:22:58;19.20;51.80
62589;DHT22;58504;48.770;9.148;2023-03-21T06:25:25;19.20;51.70
62589;DHT22;58504;48.770;9.148;2023-03-21T06:27:52;19.20;51.60
62589;DHT22;58504;48.770;9.148;2023-03-21T06:30:20;19.30;51.60
62589;DHT22;58504;48.770;9.148;2023-03-21T06:32:47;19.30;51.50
62589;DHT22;58504;48.770;9.148;2023-03-21T06:35:14;19.30;51.40
62589;DHT22;58504;48.770;9.148;2023-03-21T06:37:40;19.30;51.40
62589;DHT22;58504;48.770;9.148;2023-03-21T06:40:09;19.30;51.40
62589;DHT22;58504;48.770;9.148;2023-03-21T06:42:36;19.30;51.40
62589;DHT22;58504;48.770;9.148;2023-03-21T06:45:03;19.40;51.70
62589;DHT22;58504;48.770;9.148;2023-03-21T06:47:32;19.40;51.70
62589;DHT22;58504;48.770;9.148;2023-03-21T06:49:59;19.40;51.70
62589;DHT22;58504;48.770;9.148;2023-03-21T06:52:25;19.40;51.70
62589;DHT22;58504;48.770;9.148;2023-03-21T06:54:52;19.40;51.70
62589;DHT22;58504;48.770;9.148;2023-03-21T06:57:19;19.50;51.70
62589;DHT22;58504;48.770;9.148;2023-03-21T06:59:46;19.60;51.50
62589;DHT22;58504;48.770;9.148;2023-03-21T07:02:13;19.60;51.30
62589;DHT22;58504;48.770;9.148;2023-03-21T07:04:41;19.70;51.20
62589;DHT22;58504;48.770;9.148;2023-03-21T07:07:08;19.70;51.10
62589;DHT22;58504;48.770;9.148;2023-03-21T07:09:35;19.70;51.00
62589;DHT22;58504;48.770;9.148;2023-03-21T07:12:02;19.70;51.00
62589;DHT22;58504;48.770;9.148;2023-03-21T07:14:28;19.70;50.90
62589;DHT22;58504;48.770;9.148;2023-03-21T07:16:56;19.80;50.90
62589;DHT22;58504;48.770;9.148;2023-03-21T07:19:23;19.80;50.80
62589;DHT22;58504;48.770;9.148;2023-03-21T07:21:52;19.80;50.70
62589;DHT22;58504;48.770;9.148;2023-03-21T07:24:18;19.90;50.70
62589;DHT22;58504;48.770;9.148;2023-03-21T07:26:45;19.90;50.60
62589;DHT22;58504;48.770;9.148;2023-03-21T07:29:12;19.90;50.60
62589;DHT22;58504;48.770;9.148;2023-03-21T07:31:39;19.90;50.60
62589;DHT22;58504;48.770;9.148;2023-03-21T07:34:06;19.90;50.50
62589;DHT22;58504;48.770;9.148;2023-03-21T07:36:33;19.90;51.10
62589;DHT22;58504;48.770;9.148;2023-03-21T07:39:03;20.00;50.60
62589;DHT22;58504;48.770;9.148;2023-03-21T07:41:29;19.90;50.50
62589;DHT22;58504;48.770;9.148;2023-03-21T07:43:56;19.90;50.40
62589;DHT22;58504;48.770;9.148;2023-03-21T07:46:23;19.90;50.40
62589;DHT22;58504;48.770;9.148;2023-03-21T07:48:50;19.90;50.40
62589;DHT22;58504;48.770;9.148;2023-03-21T07:51:16;19.90;50.40
62589;DHT22;58504;48.770;9.148;2023-03-21T07:53:43;19.90;50.30
62589;DHT22;58504;48.770;9.148;2023-03-21T07:56:14;19.90;50.20
62589;DHT22;58504;48.770;9.148;2023-03-21T07:58:41;20.00;50.80
62589;DHT22;58504;48.770;9.148;2023-03-21T08:01:08;19.90;50.30
62589;DHT22;58504;48.770;9.148;2023-03-21T08:03:35;20.10;50.20
62589;DHT22;58504;48.770;9.148;2023-03-21T08:06:02;20.20;50.40
62589;DHT22;58504;48.770;9.148;2023-03-21T08:08:29;20.40;50.20
62589;DHT22;58504;48.770;9.148;2023-03-21T08:10:56;20.70;49.50
62589;DHT22;58504;48.770;9.148;2023-03-21T08:13:24;21.10;48.80
62589;DHT22;58504;48.770;9.148;2023-03-21T08:15:52;21.50;47.90
62589;DHT22;58504;48.770;9.148;2023-03-21T08:18:18;22.00;47.10
62589;DHT22;58504;48.770;9.148;2023-03-21T08:20:49;22.30;46.20
62589;DHT22;58504;48.770;9.148;2023-03-21T08:23:16;22.60;45.50
62589;DHT22;58504;48.770;9.148;2023-03-21T08:25:43;22.90;44.90
62589;DHT22;58504;48.770;9.148;2023-03-21T08:28:11;23.20;44.50
62589;DHT22;58504;48.770;9.148;2023-03-21T08:30:39;23.40;44.00
62589;DHT22;58504;48.770;9.148;2023-03-21T08:33:06;23.60;43.70
62589;DHT22;58504;48.770;9.148;2023-03-21T08:35:33;23.80;43.30
62589;DHT22;58504;48.770;9.148;2023-03-21T08:38:01;23.90;42.90
62589;DHT22;58504;48.770;9.148;2023-03-21T08:40:28;24.10;42.80
62589;DHT22;58504;48.770;9.148;2023-03-21T08:42:54;24.20;42.60
62589;DHT22;58504;48.770;9.148;2023-03-21T08:45:21;24.20;42.50
62589;DHT22;58504;48.770;9.148;2023-03-21T08:47:50;24.20;42.40
62589;DHT22;58504;48.770;9.148;2023-03-21T08:50:18;24.20;42.40
62589;DHT22;58504;48.770;9.148;2023-03-21T08:52:45;24.30;42.30
62589;DHT22;58504;48.770;9.148;2023-03-21T08:55:12;24.40;42.10
62589;DHT22;58504;48.770;9.148;2023-03-21T08:57:40;24.60;41.50
62589;DHT22;58504;48.770;9.148;2023-03-21T09:00:09;25.40;40.80
62589;DHT22;58504;48.770;9.148;2023-03-21T09:02:37;26.60;39.30
62589;DHT22;58504;48.770;9.148;2023-03-21T09:05:06;27.70;37.30
62589;DHT22;58504;48.770;9.148;2023-03-21T09:07:34;28.30;35.40
62589;DHT22;58504;48.770;9.148;2023-03-21T09:10:02;29.00;34.30
62589;DHT22;58504;48.770;9.148;2023-03-21T09:12:29;30.10;32.90
62589;DHT22;58504;48.770;9.148;2023-03-21T09:14:56;30.80;31.30
62589;DHT22;58504;48.770;9.148;2023-03-21T09:17:22;31.20;30.90
62589;DHT22;58504;48.770;9.148;2023-03-21T09:19:50;30.40;30.90
62589;DHT22;58504;48.770;9.148;2023-03-21T09:22:19;29.20;32.80
62589;DHT22;58504;48.770;9.148;2023-03-21T09:24:48;28.50;34.60
62589;DHT22;58504;48.770;9.148;2023-03-21T09:27:15;28.00;34.80
62589;DHT22;58504;48.770;9.148;2023-03-21T09:29:45;27.70;35.40
62589;DHT22;58504;48.770;9.148;2023-03-21T09:32:12;27.50;35.90
62589;DHT22;58504;48.770;9.148;2023-03-21T09:34:39;27.20;36.30
62589;DHT22;58504;48.770;9.148;2023-03-21T09:37:06;27.20;36.70
62589;DHT22;58504;48.770;9.148;2023-03-21T09:39:38;28.00;36.10
62589;DHT22;58504;48.770;9.148;2023-03-21T09:42:16;29.50;34.00
62589;DHT22;58504;48.770;9.148;2023-03-21T09:44:53;31.00;31.70
62589;DHT22;58504;48.770;9.148;2023-03-21T09:47:23;32.10;30.00
62589;DHT22;58504;48.770;9.148;2023-03-21T09:49:55;32.80;29.20
62589;DHT22;58504;48.770;9.148;2023-03-21T09:52:26;33.30;28.60
62589;DHT22;58504;48.770;9.148;2023-03-21T09:54:56;33.40;28.30
62589;DHT22;58504;48.770;9.148;2023-03-21T09:57:29;33.10;28.10
62589;DHT22;58504;48.770;9.148;2023-03-21T09:59:59;32.50;28.70
62589;DHT22;58504;48.770;9.148;2023-03-21T10:02:38;31.90;29.40
62589;DHT22;58504;48.770;9.148;2023-03-21T10:05:12;31.40;30.00
62589;DHT22;58504;48.770;9.148;2023-03-21T10:07:45;30.90;30.70
62589;DHT22;58504;48.770;9.148;2023-03-21T10:10:19;30.10;31.70
62589;DHT22;58504;48.770;9.148;2023-03-21T10:12:48;29.20;32.90
62589;DHT22;58504;48.770;9.148;2023-03-21T10:15:18;28.80;33.70
62589;DHT22;58504;48.770;9.148;2023-03-21T10:17:51;28.50;34.00
62589;DHT22;58504;48.770;9.148;2023-03-21T10:20:20;28.40;34.40
62589;DHT22;58504;48.770;9.148;2023-03-21T10:22:49;28.20;34.70
62589;DHT22;58504;48.770;9.148;2023-03-21T10:25:21;28.00;35.10
62589;DHT22;58504;48.770;9.148;2023-03-21T10:27:49;27.90;35.50
62589;DHT22;58504;48.770;9.148;2023-03-21T10:30:23;27.80;35.50
62589;DHT22;58504;48.770;9.148;2023-03-21T10:32:52;27.90;35.50
62589;DHT22;58504;48.770;9.148;2023-03-21T10:35:20;28.10;35.10
62589;DHT22;58504;48.770;9.148;2023-03-21T10:37:46;28.30;34.80
62589;DHT22;58504;48.770;9.148;2023-03-21T10:40:14;28.10;35.10
62589;DHT22;58504;48.770;9.148;2023-03-21T10:42:43;27.80;35.50
62589;DHT22;58504;48.770;9.148;2023-03-21T10:45:16;27.70;35.70
62589;DHT22;58504;48.770;9.148;2023-03-21T10:47:46;27.60;35.90
62589;DHT22;58504;48.770;9.148;2023-03-21T10:50:16;27.40;36.30
62589;DHT22;58504;48.770;9.148;2023-03-21T10:52:46;27.50;36.10
62589;DHT22;58504;48.770;9.148;2023-03-21T10:55:19;27.40;36.40
62589;DHT22;58504;48.770;9.148;2023-03-21T10:57:52;27.30;36.50
62589;DHT22;58504;48.770;9.148;2023-03-21T11:00:24;27.40;36.40
62589;DHT22;58504;48.770;9.148;2023-03-21T11:02:52;27.20;36.70
62589;DHT22;58504;48.770;9.148;2023-03-21T11:05:22;27.00;37.00
62589;DHT22;58504;48.770;9.148;2023-03-21T11:07:57;26.90;37.20
62589;DHT22;58504;48.770;9.148;2023-03-21T11:10:27;26.80;37.60
62589;DHT22;58504;48.770;9.148;2023-03-21T11:12:58;26.60;37.70
62589;DHT22;58504;48.770;9.148;2023-03-21T11:15:29;26.50;37.90
62589;DHT22;58504;48.770;9.148;2023-03-21T11:17:56;26.50;38.00
62589;DHT22;58504;48.770;9.148;2023-03-21T11:20:23;26.40;38.10
62589;DHT22;58504;48.770;9.148;2023-03-21T11:22:53;26.40;38.20
62589;DHT22;58504;48.770;9.148;2023-03-21T11:25:25;26.30;38.20
62589;DHT22;58504;48.770;9.148;2023-03-21T11:27:54;26.20;38.50
62589;DHT22;58504;48.770;9.148;2023-03-21T11:30:23;26.20;38.60
62589;DHT22;58504;48.770;9.148;2023-03-21T11:32:53;26.20;38.70
62589;DHT22;58504;48.770;9.148;2023-03-21T11:35:23;26.10;38.70
62589;DHT22;58504;48.770;9.148;2023-03-21T11:37:52;26.10;38.80
62589;DHT22;58504;48.770;9.148;2023-03-21T11:40:21;26.00;38.70
62589;DHT22;58504;48.770;9.148;2023-03-21T11:42:49;26.00;38.90
62589;DHT22;58504;48.770;9.148;2023-03-21T11:45:19;26.10;38.70
62589;DHT22;58504;48.770;9.148;2023-03-21T11:47:48;26.00;38.90
62589;DHT22;58504;48.770;9.148;2023-03-21T11:50:19;25.80;39.10
62589;DHT22;58504;48.770;9.148;2023-03-21T11:53:03;25.70;39.50
62589;DHT22;58504;48.770;9.148;2023-03-21T11:55:40;25.50;39.90
62589;DHT22;58504;48.770;9.148;2023-03-21T11:58:20;25.30;40.20
62589;DHT22;58504;48.770;9.148;2023-03-21T12:00:53;25.20;40.50
62589;DHT22;58504;48.770;9.148;2023-03-21T12:03:54;25.10;40.70
62589;DHT22;58504;48.770;9.148;2023-03-21T12:06:27;25.00;40.80
62589;DHT22;58504;48.770;9.148;2023-03-21T12:09:14;25.00;41.00
62589;DHT22;58504;48.770;9.148;2023-03-21T12:11:56;24.90;41.10
62589;DHT22;58504;48.770;9.148;2023-03-21T12:14:31;24.90;41.30
62589;DHT22;58504;48.770;9.148;2023-03-21T12:17:09;24.80;41.30
62589;DHT22;58504;48.770;9.148;2023-03-21T12:22:44;24.60;41.90
62589;DHT22;58504;48.770;9.148;2023-03-21T12:25:16;24.50;42.10
62589;DHT22;58504;48.770;9.148;2023-03-21T12:27:51;24.50;42.20
62589;DHT22;58504;48.770;9.148;2023-03-21T12:30:25;24.50;42.20
62589;DHT22;58504;48.770;9.148;2023-03-21T12:33:09;24.40;42.20
62589;DHT22;58504;48.770;9.148;2023-03-21T12:35:51;24.40;42.30
62589;DHT22;58504;48.770;9.148;2023-03-21T12:38:22;24.30;42.40
62589;DHT22;58504;48.770;9.148;2023-03-21T12:41:03;24.30;42.30
62589;DHT22;58504;48.770;9.148;2023-03-21T12:43:43;24.30;42.60
62589;DHT22;58504;48.770;9.148;2023-03-21T12:46:15;24.20;42.40
62589;DHT22;58504;48.770;9.148;2023-03-21T12:48:46;24.20;42.50
62589;DHT22;58504;48.770;9.148;2023-03-21T12:51:18;24.20;42.60
62589;DHT22;58504;48.770;9.148;2023-03-21T12:53:53;24.20;42.60
62589;DHT22;58504;48.770;9.148;2023-03-21T12:56:26;24.20;42.40
62589;DHT22;58504;48.770;9.148;2023-03-21T12:58:57;24.30;42.40
62589;DHT22;58504;48.770;9.148;2023-03-21T13:01:27;24.30;42.30
62589;DHT22;58504;48.770;9.148;2023-03-21T13:04:07;24.40;42.00
62589;DHT22;58504;48.770;9.148;2023-03-21T13:06:37;24.40;42.10
62589;DHT22;58504;48.770;9.148;2023-03-21T13:09:09;24.50;42.10
62589;DHT22;58504;48.770;9.148;2023-03-21T13:11:39;24.50;42.00
62589;DHT22;58504;48.770;9.148;2023-03-21T13:14:10;24.50;42.00
62589;DHT22;58504;48.770;9.148;2023-03-21T13:16:41;24.50;42.00
62589;DHT22;58504;48.770;9.148;2023-03-21T13:19:17;24.50;42.00
62589;DHT22;58504;48.770;9.148;2023-03-21T13:21:52;24.50;42.00
62589;DHT22;58504;48.770;9.148;2023-03-21T13:24:27;24.50;42.00
62589;DHT22;58504;48.770;9.148;2023-03-21T13:27:02;24.50;42.00
62589;DHT22;58504;48.770;9.148;2023-03-21T13:29:32;24.50;42.00
62589;DHT22;58504;48.770;9.148;2023-03-21T13:32:07;24.50;42.10
62589;DHT22;58504;48.770;9.148;2023-03-21T13:34:37;24.50;42.20
62589;DHT22;58504;48.770;9.148;2023-03-21T13:37:13;24.50;42.10
62589;DHT22;58504;48.770;9.148;2023-03-21T13:39:43;24.50;42.30
62589;DHT22;58504;48.770;9.148;2023-03-21T13:42:19;24.50;42.30
62589;DHT22;58504;48.770;9.148;2023-03-21T13:44:49;24.40;42.10
62589;DHT22;58504;48.770;9.148;2023-03-21T13:47:37;24.40;42.30
62589;DHT22;58504;48.770;9.148;2023-03-21T13:50:21;24.30;42.30
62589;DHT22;58504;48.770;9.148;2023-03-21T13:53:18;24.20;42.60
62589;DHT22;58504;48.770;9.148;2023-03-21T13:55:49;24.10;42.90
62589;DHT22;58504;48.770;9.148;2023-03-21T13:58:31;24.10;43.00
62589;DHT22;58504;48.770;9.148;2023-03-21T14:01:15;24.10;42.90
62589;DHT22;58504;48.770;9.148;2023-03-21T14:03:44;24.00;43.00
62589;DHT22;58504;48.770;9.148;2023-03-21T14:06:11;23.90;43.00
62589;DHT22;58504;48.770;9.148;2023-03-21T14:08:44;23.80;43.80
62589;DHT22;58504;48.770;9.148;2023-03-21T14:11:13;23.80;43.40
62589;DHT22;58504;48.770;9.148;2023-03-21T14:13:42;23.70;43.40
62589;DHT22;58504;48.770;9.148;2023-03-21T14:16:12;23.70;43.70
62589;DHT22;58504;48.770;9.148;2023-03-21T14:18:43;23.70;43.90
62589;DHT22;58504;48.770;9.148;2023-03-21T14:21:16;23.70;43.80
62589;DHT22;58504;48.770;9.148;2023-03-21T14:23:44;23.70;43.70
62589;DHT22;58504;48.770;9.148;2023-03-21T14:26:12;23.80;43.70
62589;DHT22;58504;48.770;9.148;2023-03-21T14:28:45;23.80;43.50
62589;DHT22;58504;48.770;9.148;2023-03-21T14:31:14;24.00;43.30
62589;DHT22;58504;48.770;9.148;2023-03-21T14:33:45;24.00;43.20
62589;DHT22;58504;48.770;9.148;2023-03-21T14:36:16;24.00;43.10
62589;DHT22;58504;48.770;9.148;2023-03-21T14:38:54;24.10;43.10
62589;DHT22;58504;48.770;9.148;2023-03-21T14:41:23;24.10;43.10
62589;DHT22;58504;48.770;9.148;2023-03-21T14:44:10;24.10;43.00
62589;DHT22;58504;48.770;9.148;2023-03-21T14:46:37;24.10;43.10
62589;DHT22;58504;48.770;9.148;2023-03-21T14:49:18;24.10;43.10
62589;DHT22;58504;48.770;9.148;2023-03-21T14:51:46;24.00;43.20
62589;DHT22;58504;48.770;9.148;2023-03-21T14:54:16;24.00;43.00
62589;DHT22;58504;48.770;9.148;2023-03-21T14:56:48;24.00;43.10
62589;DHT22;58504;48.770;9.148;2023-03-21T14:59:19;24.00;43.10
62589;DHT22;58504;48.770;9.148;2023-03-21T15:01:48;24.10;43.10
62589;DHT22;58504;48.770;9.148;2023-03-21T15:04:16;24.10;43.00
62589;DHT22;58504;48.770;9.148;2023-03-21T15:06:50;24.10;42.90
62589;DHT22;58504;48.770;9.148;2023-03-21T15:09:21;24.10;43.00
62589;DHT22;58504;48.770;9.148;2023-03-21T15:11:50;24.00;43.00
62589;DHT22;58504;48.770;9.148;2023-03-21T15:14:19;24.00;43.00
62589;DHT22;58504;48.770;9.148;2023-03-21T15:16:48;24.00;43.00
62589;DHT22;58504;48.770;9.148;2023-03-21T15:19:18;24.00;43.00
62589;DHT22;58504;48.770;9.148;2023-03-21T15:21:51;24.00;43.00
62589;DHT22;58504;48.770;9.148;2023-03-21T15:24:24;24.00;43.00
62589;DHT22;58504;48.770;9.148;2023-03-21T15:26:57;24.00;43.10
62589;DHT22;58504;48.770;9.148;2023-03-21T15:29:25;24.00;42.70
62589;DHT22;58504;48.770;9.148;2023-03-21T15:31:52;24.00;42.30
62589;DHT22;58504;48.770;9.148;2023-03-21T15:34:22;24.00;42.20
62589;DHT22;58504;48.770;9.148;2023-03-21T15:36:54;23.90;41.90
62589;DHT22;58504;48.770;9.148;2023-03-21T15:39:22;23.80;42.40
62589;DHT22;58504;48.770;9.148;2023-03-21T15:41:59;23.80;41.80
62589;DHT22;58504;48.770;9.148;2023-03-21T15:44:27;23.70;41.50
62589;DHT22;58504;48.770;9.148;2023-03-21T15:46:55;23.60;41.70
62589;DHT22;58504;48.770;9.148;2023-03-21T15:49:26;23.50;42.40
62589;DHT22;58504;48.770;9.148;2023-03-21T15:51:56;23.50;42.70
62589;DHT22;58504;48.770;9.148;2023-03-21T15:54:27;23.40;42.80